createdAt,value
2022-12-03T00:03:59.611Z,2.97
2022-12-03T00:09:02.780Z,2.40
2022-12-03T00:14:05.393Z,3.22
2022-12-03T00:19:08.000Z,4.65
2022-12-03T00:24:10.507Z,4.30
2022-12-03T00:29:12.999Z,4.32
2022-12-03T00:34:15.525Z,4.88
2022-12-03T00:39:17.951Z,4.78
2022-12-03T00:44:20.378Z,2.40
2022-12-03T00:49:22.881Z,4.50
2022-12-03T00:54:31.440Z,3.22
2022-12-03T00:59:34.666Z,4.40
2022-12-03T01:04:38.825Z,3.83
2022-12-03T01:09:41.307Z,2.85
2022-12-03T01:19:48.765Z,2.88
2022-12-03T01:24:51.856Z,3.08
2022-12-03T01:29:54.482Z,4.25
2022-12-03T01:39:59.621Z,4.13
2022-12-03T01:50:32.095Z,2.00
2022-12-03T01:55:34.741Z,2.58
2022-12-03T02:00:37.195Z,3.53
2022-12-03T02:10:41.922Z,3.67
2022-12-03T02:21:07.300Z,3.20
2022-12-03T02:26:10.520Z,2.38
2022-12-03T02:31:13.092Z,3.00
2022-12-03T02:36:16.116Z,3.28
2022-12-03T02:41:40.198Z,2.33
2022-12-03T02:46:42.904Z,2.58
2022-12-03T02:51:45.435Z,3.75
2022-12-03T02:56:47.880Z,3.00
2022-12-03T03:01:50.528Z,3.45
2022-12-03T03:06:53.426Z,2.45
2022-12-03T03:11:58.902Z,2.03
2022-12-03T03:17:01.439Z,2.53
2022-12-03T03:22:03.999Z,1.95
2022-12-03T03:27:06.856Z,2.85
2022-12-03T03:32:09.491Z,1.48
2022-12-03T03:37:12.168Z,3.03
2022-12-03T03:42:14.850Z,1.48
2022-12-03T03:47:19.556Z,2.05
2022-12-03T03:52:22.440Z,1.30
2022-12-03T03:57:24.881Z,1.77
2022-12-03T04:07:30.413Z,1.80
2022-12-03T04:12:51.389Z,1.52
2022-12-03T04:18:13.402Z,1.48
2022-12-03T04:23:17.004Z,2.17
2022-12-03T04:28:37.915Z,1.48
2022-12-03T04:33:59.044Z,1.58
2022-12-03T04:39:01.562Z,2.17
2022-12-03T04:44:22.374Z,1.20
2022-12-03T04:54:28.983Z,3.00
2022-12-03T04:59:32.011Z,1.35
2022-12-03T05:04:35.000Z,1.60
2022-12-03T05:09:37.422Z,2.63
2022-12-03T05:14:39.896Z,2.00
2022-12-03T05:20:00.713Z,2.00
2022-12-03T05:25:03.367Z,1.92
2022-12-03T05:30:06.641Z,2.13
2022-12-03T05:35:10.586Z,1.80
2022-12-03T05:40:14.011Z,2.70
2022-12-03T05:45:16.504Z,1.80
2022-12-03T05:50:19.947Z,1.85
2022-12-03T05:55:22.884Z,2.13
2022-12-03T06:00:28.576Z,3.53
2022-12-03T06:05:31.344Z,1.88
2022-12-03T06:10:33.836Z,2.15
2022-12-03T06:15:41.944Z,2.05
2022-12-03T06:20:46.135Z,2.20
2022-12-03T06:25:48.726Z,2.17
2022-12-03T06:30:51.348Z,2.25
2022-12-03T06:35:53.855Z,1.58
2022-12-03T06:40:56.333Z,2.03
2022-12-03T06:45:58.962Z,1.70
2022-12-03T06:51:01.478Z,1.52
2022-12-03T06:56:04.088Z,2.25
2022-12-03T07:01:06.743Z,1.60
2022-12-03T07:06:09.336Z,2.70
2022-12-03T07:11:31.517Z,1.70
2022-12-03T07:16:38.067Z,1.95
2022-12-03T07:21:40.735Z,1.67
2022-12-03T07:26:43.270Z,2.08
2022-12-03T07:31:45.847Z,1.48
2022-12-03T07:36:48.380Z,1.48
2022-12-03T07:41:50.956Z,1.40
2022-12-03T07:46:55.109Z,1.92
2022-12-03T07:51:57.732Z,1.35
2022-12-03T07:57:01.787Z,2.17
2022-12-03T08:02:04.795Z,0.90
2022-12-03T08:07:07.304Z,1.38
2022-12-03T08:12:17.851Z,0.93
2022-12-03T08:17:21.961Z,1.90
2022-12-03T08:22:25.355Z,1.52
2022-12-03T08:27:27.898Z,1.30
2022-12-03T08:32:31.846Z,1.15
2022-12-03T08:37:36.399Z,1.00
2022-12-03T08:42:44.472Z,0.98
2022-12-03T08:47:46.979Z,1.00
2022-12-03T08:52:49.891Z,0.85
2022-12-03T08:57:52.378Z,0.63
2022-12-03T09:03:00.435Z,1.08
2022-12-03T09:08:04.125Z,0.93
2022-12-03T09:13:06.642Z,1.50
2022-12-03T09:18:09.429Z,0.80
2022-12-03T09:23:12.427Z,0.82
2022-12-03T09:28:15.004Z,0.80
2022-12-03T09:33:17.511Z,0.88
2022-12-03T09:38:20.268Z,0.75
2022-12-03T09:43:24.437Z,0.57
2022-12-03T09:48:27.390Z,0.65
2022-12-03T09:53:30.405Z,0.73
2022-12-03T09:58:34.899Z,0.55
2022-12-03T10:03:42.395Z,1.02
2022-12-03T10:08:50.533Z,0.77
2022-12-03T10:19:01.770Z,1.10
2022-12-03T10:24:28.944Z,1.40
2022-12-03T10:29:36.601Z,0.55
2022-12-03T10:34:41.372Z,1.40
2022-12-03T10:40:09.493Z,0.45
2022-12-03T10:45:20.218Z,0.52
2022-12-03T10:50:22.747Z,0.40
2022-12-03T10:55:25.778Z,0.30
2022-12-03T11:00:28.271Z,0.80
2022-12-03T11:05:30.869Z,0.75
2022-12-03T11:11:16.834Z,1.50
2022-12-03T11:16:41.044Z,0.50
2022-12-03T11:22:10.225Z,0.80
2022-12-03T11:27:12.674Z,0.40
2022-12-03T11:32:40.754Z,0.70
2022-12-03T11:37:43.290Z,0.70
2022-12-03T11:42:47.877Z,0.38
2022-12-03T11:47:59.251Z,0.55
2022-12-03T11:53:22.335Z,0.30
2022-12-03T11:58:30.365Z,1.00
2022-12-03T12:03:36.832Z,0.40
2022-12-03T12:08:49.878Z,1.30
2022-12-03T12:13:58.498Z,0.50
2022-12-03T12:19:43.413Z,0.55
2022-12-03T12:29:56.634Z,0.52
2022-12-03T12:35:27.072Z,0.60
2022-12-03T12:40:32.178Z,1.77
2022-12-03T12:45:36.851Z,0.80
2022-12-03T12:50:41.276Z,0.80
2022-12-03T12:55:43.871Z,0.55
2022-12-03T13:00:58.180Z,0.80
2022-12-03T13:06:03.782Z,0.80
2022-12-03T13:11:24.849Z,0.90
2022-12-03T13:16:31.829Z,0.90
2022-12-03T13:21:39.026Z,0.93
2022-12-03T13:26:41.909Z,0.98
2022-12-03T13:31:51.127Z,0.65
2022-12-03T13:36:57.977Z,1.92
2022-12-03T13:42:42.112Z,1.98
2022-12-03T13:47:48.846Z,1.85
2022-12-03T13:52:53.213Z,1.23
2022-12-03T13:57:55.827Z,0.68
2022-12-03T14:02:59.032Z,1.17
2022-12-03T14:08:05.146Z,0.90
2022-12-03T14:13:07.783Z,1.80
2022-12-03T14:18:10.273Z,3.08
2022-12-03T14:23:12.744Z,0.98
2022-12-03T14:28:15.209Z,1.33
2022-12-03T14:33:17.960Z,1.08
2022-12-03T14:38:20.637Z,1.27
2022-12-03T14:43:23.204Z,1.27
2022-12-03T14:48:25.790Z,1.90
2022-12-03T14:53:28.245Z,1.35
2022-12-03T14:58:30.679Z,1.92
2022-12-03T15:03:49.222Z,2.00
2022-12-03T15:08:51.743Z,5.85
2022-12-03T15:13:54.307Z,3.40
2022-12-03T15:18:56.767Z,3.85
2022-12-03T15:24:00.190Z,1.92
2022-12-03T15:29:02.656Z,1.35
2022-12-03T15:34:05.528Z,1.30
2022-12-03T15:39:07.994Z,1.33
2022-12-03T15:44:10.546Z,0.60
2022-12-03T15:49:13.189Z,0.43
2022-12-03T15:54:15.812Z,1.85
2022-12-03T15:59:19.793Z,1.73
2022-12-03T16:04:22.293Z,1.13
2022-12-03T16:09:27.445Z,0.40
2022-12-03T16:14:30.377Z,0.90
2022-12-03T16:19:32.781Z,0.85
2022-12-03T16:24:36.720Z,0.60
2022-12-03T16:29:39.184Z,0.63
2022-12-03T16:34:41.684Z,0.52
2022-12-03T16:39:44.313Z,0.52
2022-12-03T16:44:55.590Z,0.47
2022-12-03T16:49:58.122Z,0.68
2022-12-03T16:55:00.641Z,0.68
2022-12-03T17:00:04.015Z,0.52
2022-12-03T17:05:07.147Z,1.00
2022-12-03T17:10:10.125Z,1.52
2022-12-03T17:15:12.769Z,1.05
2022-12-03T17:20:15.520Z,0.65
2022-12-03T17:25:18.314Z,0.40
2022-12-03T17:30:21.403Z,0.50
2022-12-03T17:35:23.969Z,0.60
2022-12-03T17:40:26.924Z,0.63
2022-12-03T17:45:29.466Z,1.08
2022-12-03T17:50:31.991Z,0.70
2022-12-03T17:55:42.664Z,0.57
2022-12-03T18:00:47.849Z,0.73
2022-12-03T18:05:50.326Z,0.43
2022-12-03T18:10:52.843Z,0.65
2022-12-03T18:15:56.724Z,0.80
2022-12-03T18:21:02.422Z,0.55
2022-12-03T18:26:05.602Z,0.77
2022-12-03T18:31:16.333Z,0.40
2022-12-03T18:36:49.057Z,0.40
2022-12-03T18:41:52.343Z,0.52
2022-12-03T18:46:56.063Z,0.55
2022-12-03T18:51:59.705Z,0.70
2022-12-03T18:57:02.389Z,0.52
2022-12-03T19:07:08.992Z,0.63
2022-12-03T19:12:14.725Z,0.50
2022-12-03T19:17:19.898Z,0.85
2022-12-03T19:22:22.472Z,1.00
2022-12-03T19:27:24.943Z,1.13
2022-12-03T19:37:32.977Z,1.00
2022-12-03T19:42:35.450Z,0.85
2022-12-03T19:47:38.303Z,0.73
2022-12-03T19:52:40.828Z,0.93
2022-12-03T19:57:43.256Z,0.50
2022-12-03T20:02:49.159Z,0.82
2022-12-03T20:07:51.754Z,0.77
2022-12-03T20:12:54.255Z,0.73
2022-12-03T20:23:10.577Z,0.50
2022-12-03T20:33:15.239Z,0.40
2022-12-03T20:43:20.542Z,1.15
2022-12-03T20:48:23.080Z,1.25
2022-12-03T20:58:29.312Z,1.42
2022-12-03T21:03:31.700Z,0.70
2022-12-03T21:13:45.137Z,1.13
2022-12-03T21:18:48.064Z,1.10
2022-12-03T21:23:50.766Z,0.63
2022-12-03T21:28:54.115Z,0.85
2022-12-03T21:33:57.188Z,0.60
2022-12-03T21:38:59.656Z,0.68
2022-12-03T21:44:05.196Z,0.77
2022-12-03T21:49:07.679Z,0.80
2022-12-03T21:59:12.561Z,1.13
2022-12-03T22:04:15.106Z,1.33
2022-12-03T22:09:21.720Z,0.60
2022-12-03T22:14:28.719Z,0.77
2022-12-03T22:19:31.292Z,0.57
2022-12-03T22:24:33.794Z,1.00
2022-12-03T22:29:36.222Z,0.77
2022-12-03T22:34:38.778Z,0.90
2022-12-03T22:44:43.463Z,0.32
2022-12-03T22:49:45.956Z,0.60
2022-12-03T22:59:50.674Z,0.45
2022-12-03T23:09:58.221Z,0.80
2022-12-03T23:15:00.813Z,0.45
2022-12-03T23:25:07.633Z,0.45
2022-12-03T23:30:11.401Z,0.98
2022-12-03T23:35:13.923Z,0.73
2022-12-03T23:45:18.763Z,0.30
2022-12-03T23:50:21.211Z,0.90
2022-12-03T23:55:24.156Z,0.68
